createdAt,value
2019-01-08T00:01:23.463Z,99.10
2019-01-08T00:03:52.629Z,99.10
2019-01-08T00:06:22.627Z,99.20
2019-01-08T00:08:52.611Z,98.80
2019-01-08T00:11:24.340Z,97.70
2019-01-08T00:13:53.986Z,96.90
2019-01-08T00:16:24.272Z,95.40
2019-01-08T00:18:58.333Z,94.30
2019-01-08T00:21:29.690Z,93.80
2019-01-08T00:23:58.515Z,93.50
2019-01-08T00:26:27.721Z,93.10
2019-01-08T00:28:56.610Z,93.80
2019-01-08T00:31:25.660Z,94.60
2019-01-08T00:33:54.605Z,95.00
2019-01-08T00:36:23.444Z,95.00
2019-01-08T00:38:53.782Z,95.40
2019-01-08T00:41:22.667Z,95.60
2019-01-08T00:43:51.588Z,95.70
2019-01-08T00:46:20.505Z,95.80
2019-01-08T00:48:49.410Z,96.00
2019-01-08T00:51:18.643Z,95.90
2019-01-08T00:53:47.615Z,95.90
2019-01-08T00:56:16.724Z,96.00
2019-01-08T00:58:51.477Z,95.90
2019-01-08T01:01:17.938Z,95.80
2019-01-08T01:03:47.080Z,95.70
2019-01-08T01:06:16.050Z,95.50
2019-01-08T01:08:44.937Z,95.30
2019-01-08T01:11:13.993Z,95.00
2019-01-08T01:13:43.028Z,94.90
2019-01-08T01:16:12.068Z,94.00
2019-01-08T01:18:41.084Z,93.20
2019-01-08T01:21:10.011Z,93.20
2019-01-08T01:23:38.795Z,92.10
2019-01-08T01:26:07.647Z,91.30
2019-01-08T01:28:37.904Z,90.50
2019-01-08T01:31:07.072Z,90.50
2019-01-08T01:33:35.962Z,90.00
2019-01-08T01:36:05.231Z,90.00
2019-01-08T01:38:34.379Z,90.10
2019-01-08T01:41:03.347Z,90.40
2019-01-08T01:43:33.704Z,90.30
2019-01-08T01:46:02.582Z,90.60
2019-01-08T01:48:31.528Z,90.70
2019-01-08T01:51:05.126Z,90.90
2019-01-08T01:53:33.947Z,90.90
2019-01-08T01:56:03.456Z,90.80
2019-01-08T01:58:32.363Z,90.50
2019-01-08T02:01:01.231Z,90.30
2019-01-08T02:03:30.057Z,90.20
2019-01-08T02:05:58.957Z,89.60
2019-01-08T02:08:27.912Z,89.20
2019-01-08T02:10:56.700Z,87.50
2019-01-08T02:13:26.844Z,87.50
2019-01-08T02:15:55.717Z,87.40
2019-01-08T02:18:24.577Z,87.30
2019-01-08T02:20:53.443Z,87.80
2019-01-08T02:23:22.389Z,87.80
2019-01-08T02:25:51.183Z,88.60
2019-01-08T02:28:20.021Z,87.90
2019-01-08T02:30:49.052Z,87.10
2019-01-08T02:33:17.965Z,86.80
2019-01-08T02:35:46.952Z,86.70
2019-01-08T02:38:15.902Z,86.20
2019-01-08T02:40:44.786Z,86.30
2019-01-08T02:43:13.865Z,86.60
2019-01-08T02:45:42.913Z,86.80
2019-01-08T02:48:12.487Z,86.20
2019-01-08T02:50:42.037Z,86.30
2019-01-08T02:53:11.079Z,84.30
2019-01-08T02:55:40.143Z,84.50
2019-01-08T02:58:09.065Z,83.60
2019-01-08T03:00:38.260Z,84.60
2019-01-08T03:03:07.262Z,84.50
2019-01-08T03:05:36.154Z,83.90
2019-01-08T03:08:04.970Z,83.20
2019-01-08T03:10:33.943Z,83.50
2019-01-08T03:13:02.757Z,84.00
2019-01-08T03:15:33.122Z,85.20
2019-01-08T03:18:01.971Z,85.80
2019-01-08T03:20:30.890Z,85.20
2019-01-08T03:22:59.867Z,86.30
2019-01-08T03:25:28.720Z,86.00
2019-01-08T03:27:57.540Z,85.00
2019-01-08T03:30:26.613Z,84.60
2019-01-08T03:32:55.456Z,84.10
2019-01-08T03:35:24.314Z,82.80
2019-01-08T03:37:53.169Z,81.90
2019-01-08T03:40:22.141Z,81.50
2019-01-08T03:42:51.057Z,82.00
2019-01-08T03:45:19.953Z,80.40
2019-01-08T03:47:48.944Z,80.10
2019-01-08T03:50:18.218Z,81.00
2019-01-08T03:52:47.044Z,81.00
2019-01-08T03:55:15.994Z,81.40
2019-01-08T03:57:44.900Z,81.50
2019-01-08T04:00:14.041Z,82.70
2019-01-08T04:02:43.088Z,82.70
2019-01-08T04:05:11.993Z,82.80
2019-01-08T04:07:41.586Z,82.70
2019-01-08T04:10:10.536Z,82.70
2019-01-08T04:12:39.928Z,82.70
2019-01-08T04:15:09.335Z,82.70
2019-01-08T04:17:38.803Z,82.70
2019-01-08T04:20:07.783Z,82.20
2019-01-08T04:22:37.781Z,81.40
2019-01-08T04:25:09.921Z,82.20
2019-01-08T04:27:40.788Z,82.70
2019-01-08T04:30:10.268Z,82.00
2019-01-08T04:32:40.778Z,82.10
2019-01-08T04:35:12.849Z,81.70
2019-01-08T04:37:41.720Z,81.50
2019-01-08T04:40:10.654Z,81.70
2019-01-08T04:42:40.176Z,81.00
2019-01-08T04:45:09.261Z,80.20
2019-01-08T04:47:38.330Z,80.80
2019-01-08T04:50:08.252Z,80.70
2019-01-08T04:52:37.199Z,80.10
2019-01-08T04:55:06.515Z,81.80
2019-01-08T04:57:35.584Z,83.40
2019-01-08T05:00:07.657Z,84.90
2019-01-08T05:02:38.871Z,86.40
2019-01-08T05:05:09.280Z,86.70
2019-01-08T05:07:40.737Z,86.80
2019-01-08T05:10:09.803Z,87.80
2019-01-08T05:12:38.739Z,88.60
2019-01-08T05:15:08.720Z,88.00
2019-01-08T05:17:37.646Z,88.30
2019-01-08T05:20:08.137Z,88.30
2019-01-08T05:22:37.142Z,87.90
2019-01-08T05:25:06.321Z,87.90
2019-01-08T05:27:35.243Z,87.90
2019-01-08T05:30:08.143Z,86.70
2019-01-08T05:32:37.634Z,87.00
2019-01-08T05:35:06.836Z,89.20
2019-01-08T05:37:35.716Z,87.50
2019-01-08T05:40:06.793Z,87.80
2019-01-08T05:42:36.004Z,87.90
2019-01-08T05:45:05.620Z,83.90
2019-01-08T05:47:34.519Z,85.30
2019-01-08T05:50:03.706Z,83.20
2019-01-08T05:52:32.763Z,81.50
2019-01-08T05:55:02.394Z,82.50
2019-01-08T05:57:31.250Z,82.00
2019-01-08T06:00:01.525Z,79.00
2019-01-08T06:02:30.345Z,80.00
2019-01-08T06:04:59.292Z,79.80
2019-01-08T06:07:28.178Z,77.90
2019-01-08T06:09:57.077Z,77.70
2019-01-08T06:12:26.069Z,77.90
2019-01-08T06:14:55.040Z,76.30
2019-01-08T06:17:23.865Z,75.90
2019-01-08T06:19:53.027Z,76.40
2019-01-08T06:22:22.499Z,75.50
2019-01-08T06:24:51.451Z,75.40
2019-01-08T06:27:21.909Z,74.30
2019-01-08T06:29:51.465Z,75.00
2019-01-08T06:32:22.483Z,76.40
2019-01-08T06:34:53.115Z,77.90
2019-01-08T06:37:22.295Z,77.70
2019-01-08T06:39:54.582Z,78.70
2019-01-08T06:42:26.219Z,79.30
2019-01-08T06:44:55.737Z,80.10
2019-01-08T06:47:24.717Z,81.20
2019-01-08T06:49:55.407Z,82.30
2019-01-08T06:52:24.354Z,82.30
2019-01-08T06:54:53.361Z,82.30
2019-01-08T06:57:22.471Z,82.60
2019-01-08T06:59:51.632Z,83.10
2019-01-08T07:02:21.197Z,83.30
2019-01-08T07:04:50.312Z,83.20
2019-01-08T07:07:19.290Z,83.20
2019-01-08T07:09:48.818Z,83.20
2019-01-08T07:12:17.675Z,82.70
2019-01-08T07:14:46.678Z,82.50
2019-01-08T07:17:15.811Z,82.40
2019-01-08T07:19:44.658Z,81.00
2019-01-08T07:22:13.507Z,80.00
2019-01-08T07:24:42.451Z,79.90
2019-01-08T07:27:16.394Z,79.40
2019-01-08T07:29:42.109Z,79.40
2019-01-08T07:32:11.578Z,79.00
2019-01-08T07:34:40.564Z,78.30
2019-01-08T07:37:09.607Z,78.80
2019-01-08T07:39:38.629Z,78.40
2019-01-08T07:42:07.579Z,77.80
2019-01-08T07:47:14.367Z,77.40
2019-01-08T07:49:48.084Z,76.80
2019-01-08T07:52:17.651Z,75.20
2019-01-08T07:54:47.983Z,74.70
2019-01-08T07:57:16.904Z,74.10
2019-01-08T07:59:45.901Z,72.20
2019-01-08T08:02:15.129Z,73.20
2019-01-08T08:04:47.757Z,71.50
2019-01-08T08:07:14.987Z,70.60
2019-01-08T08:09:44.045Z,70.50
2019-01-08T08:12:13.021Z,71.40
2019-01-08T08:14:41.925Z,72.20
2019-01-08T08:17:10.892Z,71.90
2019-01-08T08:19:41.198Z,72.90
2019-01-08T08:22:10.116Z,71.50
2019-01-08T08:24:39.045Z,72.00
2019-01-08T08:27:08.562Z,71.00
2019-01-08T08:29:37.425Z,70.40
2019-01-08T08:32:10.003Z,70.30
2019-01-08T08:34:39.057Z,70.50
2019-01-08T08:37:08.626Z,70.90
2019-01-08T08:39:39.221Z,73.10
2019-01-08T08:42:08.105Z,73.50
2019-01-08T08:44:37.205Z,75.60
2019-01-08T08:47:06.355Z,75.70
2019-01-08T08:49:41.849Z,78.00
2019-01-08T08:52:10.774Z,78.90
2019-01-08T08:54:39.669Z,77.00
2019-01-08T08:57:08.547Z,76.10
2019-01-08T08:59:38.267Z,75.30
2019-01-08T09:02:07.328Z,74.70
2019-01-08T09:04:36.422Z,74.30
2019-01-08T09:07:05.464Z,75.30
2019-01-08T09:09:34.654Z,75.30
2019-01-08T09:12:03.563Z,75.90
2019-01-08T09:14:32.544Z,75.80
2019-01-08T09:17:01.590Z,76.60
2019-01-08T09:19:31.665Z,77.00
2019-01-08T09:22:00.817Z,79.00
2019-01-08T09:24:29.715Z,81.60
2019-01-08T09:26:59.518Z,82.50
2019-01-08T09:29:28.583Z,84.00
2019-01-08T09:31:58.167Z,84.70
2019-01-08T09:34:27.124Z,86.30
2019-01-08T09:36:55.946Z,87.80
2019-01-08T09:39:24.849Z,89.80
2019-01-08T09:41:53.809Z,90.50
2019-01-08T09:44:22.803Z,90.80
2019-01-08T09:46:51.850Z,91.20
2019-01-08T09:49:22.254Z,91.00
2019-01-08T09:51:51.187Z,91.60
2019-01-08T09:54:20.157Z,91.70
2019-01-08T09:56:49.016Z,91.60
2019-01-08T09:59:19.531Z,91.30
2019-01-08T10:01:49.108Z,91.60
2019-01-08T10:04:18.050Z,91.50
2019-01-08T10:06:46.941Z,91.30
2019-01-08T10:09:15.898Z,91.40
2019-01-08T10:11:44.877Z,91.60
2019-01-08T10:14:13.883Z,90.80
2019-01-08T10:16:42.801Z,90.70
2019-01-08T10:19:12.860Z,90.30
2019-01-08T10:21:41.856Z,90.60
2019-01-08T10:24:10.646Z,90.20
2019-01-08T10:26:39.643Z,89.80
2019-01-08T10:29:08.502Z,89.20
2019-01-08T10:31:37.769Z,89.10
2019-01-08T10:34:06.708Z,88.70
2019-01-08T10:36:35.848Z,89.20
2019-01-08T10:39:06.773Z,89.30
2019-01-08T10:41:35.998Z,88.80
2019-01-08T10:44:04.963Z,88.40
2019-01-08T10:46:37.585Z,88.20
2019-01-08T10:49:04.590Z,88.20
2019-01-08T10:51:33.470Z,87.80
2019-01-08T10:54:02.572Z,87.80
2019-01-08T10:56:31.492Z,86.30
2019-01-08T10:59:07.592Z,87.20
2019-01-08T11:01:31.203Z,86.70
2019-01-08T11:04:00.191Z,86.40
2019-01-08T11:06:29.326Z,85.40
2019-01-08T11:08:58.192Z,85.40
2019-01-08T11:11:27.206Z,85.20
2019-01-08T11:13:56.131Z,86.30
2019-01-08T11:16:25.162Z,88.30
2019-01-08T11:18:54.161Z,90.70
2019-01-08T11:21:23.676Z,90.90
2019-01-08T11:23:52.568Z,91.40
2019-01-08T11:26:21.601Z,91.40
2019-01-08T11:28:50.462Z,91.00
2019-01-08T11:31:19.617Z,90.70
2019-01-08T11:33:48.957Z,89.80
2019-01-08T11:36:18.536Z,86.90
2019-01-08T11:38:47.458Z,85.80
2019-01-08T11:41:19.373Z,87.20
2019-01-08T11:43:48.234Z,88.30
2019-01-08T11:46:17.122Z,88.30
2019-01-08T11:48:46.068Z,90.20
2019-01-08T11:51:14.891Z,90.70
2019-01-08T11:53:43.830Z,89.60
2019-01-08T11:56:12.767Z,86.10
2019-01-08T11:58:41.770Z,76.70
2019-01-08T12:01:10.607Z,76.90
2019-01-08T12:03:39.615Z,76.20
2019-01-08T12:06:08.637Z,77.80
2019-01-08T12:08:37.522Z,77.30
2019-01-08T12:11:06.444Z,76.30
2019-01-08T12:13:35.654Z,74.90
2019-01-08T12:16:06.469Z,74.30
2019-01-08T12:18:35.374Z,73.40
2019-01-08T12:21:04.390Z,75.00
2019-01-08T12:23:33.342Z,73.80
2019-01-08T12:26:04.395Z,70.20
2019-01-08T12:28:34.614Z,69.70
2019-01-08T12:31:03.629Z,69.20
2019-01-08T12:33:32.593Z,67.20
2019-01-08T12:36:01.632Z,65.90
2019-01-08T12:38:31.239Z,66.00
2019-01-08T12:41:01.032Z,66.30
2019-01-08T12:43:31.678Z,67.80
2019-01-08T12:46:00.736Z,67.90
2019-01-08T12:48:31.166Z,67.30
2019-01-08T12:51:00.348Z,67.90
2019-01-08T12:53:29.735Z,66.10
2019-01-08T12:55:58.691Z,67.30
2019-01-08T12:58:30.843Z,66.90
2019-01-08T13:01:00.050Z,64.70
2019-01-08T13:03:29.164Z,61.60
2019-01-08T13:05:58.379Z,61.50
2019-01-08T13:08:27.687Z,64.50
2019-01-08T13:10:56.602Z,64.30
2019-01-08T13:13:30.218Z,68.30
2019-01-08T13:15:56.334Z,72.20
2019-01-08T13:18:25.921Z,73.80
2019-01-08T13:20:57.290Z,75.70
2019-01-08T13:23:26.173Z,76.00
2019-01-08T13:25:55.179Z,75.10
2019-01-08T13:28:24.135Z,75.20
2019-01-08T13:30:53.517Z,69.90
2019-01-08T13:33:22.601Z,68.80
2019-01-08T13:35:52.406Z,65.40
2019-01-08T13:38:21.270Z,64.10
2019-01-08T13:40:50.456Z,65.00
2019-01-08T13:43:21.884Z,66.00
2019-01-08T13:45:50.803Z,68.30
2019-01-08T13:48:19.743Z,70.50
2019-01-08T13:50:48.986Z,73.90
2019-01-08T13:53:18.017Z,74.30
2019-01-08T13:55:46.990Z,81.50
2019-01-08T13:58:18.141Z,83.30
2019-01-08T14:00:49.777Z,85.70
2019-01-08T14:03:23.368Z,85.70
2019-01-08T14:05:53.841Z,85.70
2019-01-08T14:08:24.027Z,85.70
2019-01-08T14:10:56.549Z,84.80
2019-01-08T14:13:23.839Z,85.00
2019-01-08T14:15:54.150Z,86.70
2019-01-08T14:18:23.091Z,86.30
2019-01-08T14:20:52.201Z,84.90
2019-01-08T14:23:21.224Z,81.80
2019-01-08T14:25:52.601Z,81.70
2019-01-08T14:28:21.794Z,81.80
2019-01-08T14:30:51.028Z,81.80
2019-01-08T14:33:20.356Z,80.90
2019-01-08T14:35:49.244Z,79.50
2019-01-08T14:38:19.812Z,78.60
2019-01-08T14:40:49.442Z,75.00
2019-01-08T14:43:18.462Z,75.90
2019-01-08T14:45:47.403Z,78.40
2019-01-08T14:48:17.652Z,81.60
2019-01-08T14:50:46.523Z,79.60
2019-01-08T14:53:15.422Z,81.60
2019-01-08T14:55:45.847Z,84.60
2019-01-08T14:58:15.151Z,85.00
2019-01-08T15:00:45.462Z,83.30
2019-01-08T15:03:14.373Z,81.50
2019-01-08T15:05:44.713Z,81.60
2019-01-08T15:08:13.733Z,81.60
2019-01-08T15:10:43.573Z,81.50
2019-01-08T15:13:14.613Z,81.50
2019-01-08T15:15:43.665Z,81.50
2019-01-08T15:18:12.583Z,82.70
2019-01-08T15:20:41.651Z,82.00
2019-01-08T15:23:11.029Z,81.60
2019-01-08T15:25:40.264Z,81.60
2019-01-08T15:28:09.787Z,81.60
2019-01-08T15:30:43.827Z,81.10
2019-01-08T15:33:13.552Z,79.80
2019-01-08T15:35:42.949Z,79.80
2019-01-08T15:38:12.061Z,79.70
2019-01-08T15:40:41.128Z,77.60
2019-01-08T15:43:11.715Z,77.10
2019-01-08T15:45:40.711Z,77.20
2019-01-08T15:48:09.621Z,77.50
2019-01-08T15:50:38.597Z,77.40
2019-01-08T15:53:07.477Z,77.60
2019-01-08T15:55:36.778Z,76.40
2019-01-08T15:58:08.552Z,76.60
2019-01-08T16:00:37.815Z,76.20
2019-01-08T16:03:07.729Z,74.50
2019-01-08T16:05:37.689Z,76.00
2019-01-08T16:08:09.083Z,76.20
2019-01-08T16:10:37.948Z,78.40
2019-01-08T16:13:06.923Z,79.50
2019-01-08T16:15:35.862Z,80.90
2019-01-08T16:18:07.813Z,83.90
2019-01-08T16:20:37.607Z,81.40
2019-01-08T16:23:06.522Z,81.40
2019-01-08T16:25:35.460Z,82.20
2019-01-08T16:28:05.377Z,82.40
2019-01-08T16:30:34.426Z,81.50
2019-01-08T16:33:15.713Z,81.50
2019-01-08T16:35:39.283Z,81.50
2019-01-08T16:38:08.308Z,80.40
2019-01-08T16:40:37.276Z,80.50
2019-01-08T16:43:06.556Z,81.60
2019-01-08T16:45:35.564Z,82.60
2019-01-08T16:48:04.513Z,81.60
2019-01-08T16:50:36.850Z,81.00
2019-01-08T16:53:08.235Z,77.60
2019-01-08T16:55:37.072Z,76.60
2019-01-08T16:58:06.041Z,73.90
2019-01-08T17:00:35.695Z,73.80
2019-01-08T17:03:04.770Z,73.10
2019-01-08T17:05:33.991Z,75.30
2019-01-08T17:08:03.211Z,75.60
2019-01-08T17:10:32.235Z,73.20
2019-01-08T17:13:01.210Z,74.50
2019-01-08T17:15:30.478Z,75.10
2019-01-08T17:17:59.618Z,75.90
2019-01-08T17:20:28.718Z,72.10
2019-01-08T17:22:59.093Z,80.20
2019-01-08T17:25:29.176Z,85.90
2019-01-08T17:27:58.326Z,85.40
2019-01-08T17:30:28.233Z,85.00
2019-01-08T17:32:57.734Z,85.20
2019-01-08T17:35:30.721Z,85.30
2019-01-08T17:37:59.810Z,86.40
2019-01-08T17:40:30.283Z,88.10
2019-01-08T17:43:00.503Z,89.10
2019-01-08T17:45:30.714Z,89.50
2019-01-08T17:47:59.894Z,89.30
2019-01-08T17:50:29.061Z,87.60
2019-01-08T17:52:58.362Z,86.10
2019-01-08T17:55:27.507Z,86.40
2019-01-08T17:57:59.161Z,87.00
2019-01-08T18:00:28.132Z,85.70
2019-01-08T18:02:57.364Z,83.30
2019-01-08T18:05:27.696Z,79.60
2019-01-08T18:07:56.736Z,79.60
2019-01-08T18:10:28.442Z,74.90
2019-01-08T18:12:57.599Z,76.40
2019-01-08T18:15:26.613Z,74.70
2019-01-08T18:17:59.030Z,76.30
2019-01-08T18:20:30.116Z,77.20
2019-01-08T18:22:59.951Z,77.10
2019-01-08T18:25:29.049Z,78.00
2019-01-08T18:27:58.115Z,77.60
2019-01-08T18:30:27.255Z,77.60
2019-01-08T18:32:56.469Z,76.30
2019-01-08T18:35:25.548Z,76.40
2019-01-08T18:37:56.598Z,76.30
2019-01-08T18:40:26.066Z,76.00
2019-01-08T18:42:58.276Z,76.00
2019-01-08T18:45:27.520Z,76.70
2019-01-08T18:47:57.994Z,76.90
2019-01-08T18:50:31.187Z,77.40
2019-01-08T18:53:01.947Z,78.20
2019-01-08T18:55:31.869Z,78.80
2019-01-08T18:58:01.343Z,79.50
2019-01-08T19:00:30.564Z,80.60
2019-01-08T19:03:00.962Z,81.50
2019-01-08T19:05:30.049Z,81.40
2019-01-08T19:07:59.023Z,81.40
2019-01-08T19:10:30.906Z,76.30
2019-01-08T19:13:01.185Z,73.60
2019-01-08T19:15:30.253Z,69.80
2019-01-08T19:17:59.217Z,69.60
2019-01-08T19:20:28.187Z,69.90
2019-01-08T19:22:57.284Z,68.90
2019-01-08T19:25:26.525Z,67.60
2019-01-08T19:27:55.572Z,68.40
2019-01-08T19:30:24.879Z,69.30
2019-01-08T19:32:54.600Z,69.10
2019-01-08T19:35:31.222Z,70.80
2019-01-08T19:37:54.861Z,71.60
2019-01-08T19:40:23.787Z,70.40
2019-01-08T19:42:52.663Z,67.90
2019-01-08T19:45:23.385Z,67.30
2019-01-08T19:47:52.624Z,64.70
2019-01-08T19:50:21.542Z,64.00
2019-01-08T19:52:50.430Z,63.70
2019-01-08T19:55:19.525Z,65.40
2019-01-08T19:57:48.792Z,65.90
2019-01-08T20:00:18.048Z,66.20
2019-01-08T20:02:47.010Z,68.40
2019-01-08T20:05:16.427Z,67.10
2019-01-08T20:07:45.344Z,68.60
2019-01-08T20:10:15.413Z,69.30
2019-01-08T20:12:44.489Z,69.80
2019-01-08T20:15:14.996Z,72.20
2019-01-08T20:17:43.886Z,72.10
2019-01-08T20:20:13.033Z,72.00
2019-01-08T20:22:42.135Z,72.60
2019-01-08T20:25:11.172Z,72.80
2019-01-08T20:27:42.330Z,73.70
2019-01-08T20:30:14.555Z,74.50
2019-01-08T20:32:45.580Z,76.60
2019-01-08T20:35:14.534Z,76.50
2019-01-08T20:37:43.705Z,75.40
2019-01-08T20:40:13.005Z,75.10
2019-01-08T20:42:43.458Z,74.60
2019-01-08T20:45:12.383Z,74.10
2019-01-08T20:47:44.316Z,72.10
2019-01-08T20:50:13.374Z,69.20
2019-01-08T20:52:43.628Z,70.00
2019-01-08T20:55:12.611Z,70.30
2019-01-08T20:57:44.605Z,68.60
2019-01-08T21:00:13.929Z,69.40
2019-01-08T21:02:42.933Z,68.40
2019-01-08T21:05:12.202Z,67.90
2019-01-08T21:07:41.218Z,68.00
2019-01-08T21:10:18.410Z,67.50
2019-01-08T21:12:44.556Z,68.80
2019-01-08T21:15:13.893Z,68.70
2019-01-08T21:17:43.655Z,69.80
2019-01-08T21:20:12.855Z,69.50
2019-01-08T21:22:45.383Z,69.40
2019-01-08T21:25:14.387Z,70.50
2019-01-08T21:27:46.494Z,70.90
2019-01-08T21:30:20.597Z,70.70
2019-01-08T21:32:50.230Z,71.20
2019-01-08T21:35:19.291Z,72.00
2019-01-08T21:37:48.955Z,71.20
2019-01-08T21:40:17.988Z,72.00
2019-01-08T21:42:47.061Z,70.50
2019-01-08T21:45:15.979Z,71.00
2019-01-08T21:47:45.029Z,69.70
2019-01-08T21:50:14.860Z,69.70
2019-01-08T21:52:44.543Z,69.60
2019-01-08T21:55:13.477Z,70.50
2019-01-08T21:57:42.969Z,71.00
2019-01-08T22:00:12.443Z,71.00
2019-01-08T22:02:41.937Z,71.90
2019-01-08T22:05:12.397Z,72.00
2019-01-08T22:07:41.687Z,73.10
2019-01-08T22:10:11.122Z,73.80
2019-01-08T22:12:40.102Z,73.10
2019-01-08T22:15:09.093Z,74.00
2019-01-08T22:17:38.423Z,72.70
2019-01-08T22:20:10.481Z,73.10
2019-01-08T22:22:39.563Z,72.60
2019-01-08T22:25:08.684Z,72.90
2019-01-08T22:27:38.612Z,73.80
2019-01-08T22:30:09.088Z,75.00
2019-01-08T22:32:40.159Z,76.20
2019-01-08T22:35:09.144Z,77.80
2019-01-08T22:37:46.861Z,78.80
2019-01-08T22:40:16.017Z,79.60
2019-01-08T22:42:45.042Z,80.70
2019-01-08T22:45:15.181Z,80.80
2019-01-08T22:47:44.346Z,80.10
2019-01-08T22:50:13.288Z,80.40
2019-01-08T22:52:42.294Z,78.70
2019-01-08T22:55:11.505Z,78.60
2019-01-08T22:57:41.036Z,76.70
2019-01-08T23:00:14.364Z,75.10
2019-01-08T23:02:43.593Z,73.60
2019-01-08T23:05:14.058Z,73.90
2019-01-08T23:07:43.039Z,73.60
2019-01-08T23:10:12.051Z,73.40
2019-01-08T23:12:42.613Z,72.80
2019-01-08T23:15:11.595Z,73.90
2019-01-08T23:17:40.532Z,73.50
2019-01-08T23:20:09.803Z,73.30
2019-01-08T23:22:38.807Z,73.30
2019-01-08T23:25:08.324Z,73.10
2019-01-08T23:27:37.963Z,72.00
2019-01-08T23:30:08.687Z,72.80
2019-01-08T23:32:38.560Z,73.00
2019-01-08T23:35:07.972Z,73.70
2019-01-08T23:37:37.587Z,73.40
2019-01-08T23:40:09.696Z,73.20
2019-01-08T23:42:42.786Z,75.00
2019-01-08T23:45:13.283Z,77.50
2019-01-08T23:47:42.208Z,77.90
2019-01-08T23:50:11.303Z,79.70
2019-01-08T23:52:43.028Z,79.80
2019-01-08T23:55:13.578Z,80.70
2019-01-08T23:57:44.356Z,80.60
